createdAt,value
2022-09-30T00:01:50.719Z,5.17
2022-09-30T00:04:22.381Z,4.40
2022-09-30T00:06:51.753Z,5.33
2022-09-30T00:09:20.313Z,7.63
2022-09-30T00:11:48.496Z,5.13
2022-09-30T00:14:19.026Z,4.40
2022-09-30T00:16:47.394Z,7.80
2022-09-30T00:19:16.166Z,5.97
2022-09-30T00:21:45.926Z,7.70
2022-09-30T00:24:13.992Z,6.00
2022-09-30T00:26:41.841Z,5.73
2022-09-30T00:29:11.568Z,5.20
2022-09-30T00:31:40.179Z,4.83
2022-09-30T00:34:08.574Z,6.27
2022-09-30T00:36:38.957Z,5.87
2022-09-30T00:39:09.924Z,4.80
2022-09-30T00:41:39.114Z,5.63
2022-09-30T00:44:44.222Z,5.60
2022-09-30T00:47:36.515Z,6.83
2022-09-30T00:50:12.419Z,5.70
2022-09-30T00:52:40.697Z,4.40
2022-09-30T00:55:21.173Z,4.00
2022-09-30T00:57:49.014Z,5.93
2022-09-30T01:00:16.921Z,3.87
2022-09-30T01:02:47.629Z,4.33
2022-09-30T01:05:15.710Z,4.40
2022-09-30T01:07:43.584Z,3.30
2022-09-30T01:10:12.765Z,3.67
2022-09-30T01:12:41.014Z,3.40
2022-09-30T01:15:09.811Z,4.53
2022-09-30T01:17:49.026Z,3.87
2022-09-30T01:20:36.292Z,3.80
2022-09-30T01:23:17.933Z,3.37
2022-09-30T01:25:58.353Z,3.10
2022-09-30T01:29:01.075Z,2.73
2022-09-30T01:31:47.067Z,3.93
2022-09-30T01:34:22.302Z,3.60
2022-09-30T01:37:05.673Z,3.73
2022-09-30T01:39:42.789Z,3.17
2022-09-30T01:42:19.332Z,3.23
2022-09-30T01:44:53.397Z,5.33
2022-09-30T01:47:26.864Z,3.53
2022-09-30T01:50:00.573Z,3.50
2022-09-30T01:52:38.205Z,3.20
2022-09-30T01:55:12.237Z,4.77
2022-09-30T01:57:49.341Z,3.27
2022-09-30T02:00:17.645Z,5.50
2022-09-30T02:02:51.904Z,3.10
2022-09-30T02:05:24.434Z,3.40
2022-09-30T02:07:58.143Z,3.97
2022-09-30T02:10:29.610Z,3.10
2022-09-30T02:13:01.265Z,3.20
2022-09-30T02:15:40.239Z,3.40
2022-09-30T02:18:17.041Z,2.97
2022-09-30T02:20:45.767Z,4.43
2022-09-30T02:23:17.926Z,3.93
2022-09-30T02:25:49.057Z,2.70
2022-09-30T02:28:27.022Z,4.00
2022-09-30T02:30:59.321Z,4.27
2022-09-30T02:33:33.247Z,3.60
2022-09-30T02:36:07.248Z,2.80
2022-09-30T02:38:40.824Z,3.37
2022-09-30T02:41:12.801Z,3.47
2022-09-30T02:43:42.000Z,2.63
2022-09-30T02:46:16.855Z,4.00
2022-09-30T02:48:50.300Z,3.13
2022-09-30T02:51:23.021Z,2.53
2022-09-30T02:53:57.327Z,3.37
2022-09-30T02:56:34.826Z,3.43
2022-09-30T02:59:02.632Z,4.60
2022-09-30T03:01:31.810Z,2.50
2022-09-30T03:04:04.365Z,2.60
2022-09-30T03:06:33.025Z,2.80
2022-09-30T03:09:01.266Z,2.47
2022-09-30T03:11:30.748Z,2.50
2022-09-30T03:14:36.835Z,2.97
2022-09-30T03:17:21.156Z,2.40
2022-09-30T03:20:07.011Z,2.93
2022-09-30T03:22:57.816Z,2.70
2022-09-30T03:25:36.401Z,3.80
2022-09-30T03:28:16.185Z,2.40
2022-09-30T03:30:52.456Z,2.37
2022-09-30T03:33:26.120Z,3.50
2022-09-30T03:36:02.295Z,2.87
2022-09-30T03:38:40.949Z,2.30
2022-09-30T03:41:16.924Z,2.43
2022-09-30T03:43:49.056Z,2.67
2022-09-30T03:46:24.440Z,2.60
2022-09-30T03:48:57.153Z,2.80
2022-09-30T03:51:26.724Z,3.67
2022-09-30T03:53:55.277Z,3.70
2022-09-30T03:56:27.372Z,3.63
2022-09-30T03:58:55.296Z,3.57
2022-09-30T04:01:24.347Z,3.33
2022-09-30T04:03:53.015Z,3.17
2022-09-30T04:06:22.257Z,4.20
2022-09-30T04:08:53.733Z,4.10
2022-09-30T04:11:21.648Z,4.00
2022-09-30T04:13:49.388Z,3.70
2022-09-30T04:16:17.238Z,3.73
2022-09-30T04:18:45.072Z,5.40
2022-09-30T04:21:14.502Z,3.80
2022-09-30T04:23:43.460Z,4.83
2022-09-30T04:26:14.654Z,4.20
2022-09-30T04:28:42.790Z,7.50
2022-09-30T04:31:12.812Z,5.97
2022-09-30T04:33:40.918Z,5.33
2022-09-30T04:36:09.493Z,3.70
2022-09-30T04:38:37.260Z,4.07
2022-09-30T04:41:08.006Z,3.30
2022-09-30T04:43:37.156Z,3.33
2022-09-30T04:46:05.084Z,3.87
2022-09-30T04:48:32.866Z,3.73
2022-09-30T04:51:00.971Z,3.07
2022-09-30T04:53:29.191Z,3.10
2022-09-30T04:56:00.878Z,3.50
2022-09-30T04:58:32.223Z,4.50
2022-09-30T05:01:05.125Z,3.33
2022-09-30T05:03:33.224Z,2.90
2022-09-30T05:06:00.956Z,3.60
2022-09-30T05:08:28.692Z,2.60
2022-09-30T05:10:57.748Z,4.23
2022-09-30T05:13:26.274Z,2.70
2022-09-30T05:15:54.068Z,2.60
2022-09-30T05:18:26.280Z,3.80
2022-09-30T05:20:55.148Z,3.23
2022-09-30T05:23:22.909Z,3.97
2022-09-30T05:25:51.841Z,2.70
2022-09-30T05:28:20.109Z,3.50
2022-09-30T05:30:49.817Z,3.87
2022-09-30T05:33:17.981Z,3.23
2022-09-30T05:35:47.682Z,3.03
2022-09-30T05:38:15.472Z,2.67
2022-09-30T05:40:43.195Z,5.40
2022-09-30T05:43:11.349Z,3.40
2022-09-30T05:45:39.324Z,3.17
2022-09-30T05:48:07.949Z,3.77
2022-09-30T05:50:35.743Z,3.80
2022-09-30T05:53:04.829Z,3.27
2022-09-30T05:55:35.838Z,2.90
2022-09-30T05:58:06.741Z,2.53
2022-09-30T06:00:34.469Z,3.33
2022-09-30T06:03:02.270Z,2.83
2022-09-30T06:05:30.032Z,3.60
2022-09-30T06:07:57.739Z,3.47
2022-09-30T06:10:26.882Z,3.03
2022-09-30T06:12:54.601Z,3.70
2022-09-30T06:15:22.361Z,3.30
2022-09-30T06:17:53.464Z,3.10
2022-09-30T06:20:21.224Z,2.80
2022-09-30T06:22:48.989Z,2.67
2022-09-30T06:25:17.112Z,2.17
2022-09-30T06:27:47.497Z,2.70
2022-09-30T06:30:15.405Z,2.93
2022-09-30T06:32:43.894Z,2.73
2022-09-30T06:35:11.855Z,3.10
2022-09-30T06:37:39.669Z,2.20
2022-09-30T06:40:08.621Z,2.60
2022-09-30T06:42:36.371Z,2.83
2022-09-30T06:45:06.233Z,3.27
2022-09-30T06:47:34.035Z,3.47
2022-09-30T06:50:02.963Z,2.73
2022-09-30T06:52:30.709Z,2.50
2022-09-30T06:54:58.457Z,2.77
2022-09-30T06:57:27.701Z,2.80
2022-09-30T06:59:55.696Z,2.60
2022-09-30T07:02:25.121Z,2.60
2022-09-30T07:04:52.897Z,2.87
2022-09-30T07:07:22.123Z,2.60
2022-09-30T07:09:49.939Z,2.30
2022-09-30T07:12:17.892Z,2.07
2022-09-30T07:14:46.056Z,3.90
2022-09-30T07:17:13.775Z,2.50
2022-09-30T07:19:42.862Z,2.90
2022-09-30T07:22:30.486Z,4.17
2022-09-30T07:24:59.165Z,4.37
2022-09-30T07:27:28.232Z,3.97
2022-09-30T07:30:09.247Z,3.70
2022-09-30T07:32:39.305Z,4.90
2022-09-30T07:35:08.939Z,7.07
2022-09-30T07:37:36.817Z,30.33
2022-09-30T07:40:07.209Z,12.73
2022-09-30T07:42:38.116Z,11.10
2022-09-30T07:45:06.788Z,7.73
2022-09-30T07:47:34.598Z,5.90
2022-09-30T07:50:10.689Z,4.23
2022-09-30T07:52:38.675Z,3.40
2022-09-30T07:55:06.820Z,4.17
2022-09-30T07:57:34.553Z,4.00
2022-09-30T08:00:23.014Z,3.53
2022-09-30T08:02:50.266Z,3.17
2022-09-30T08:05:19.337Z,3.00
2022-09-30T08:07:47.100Z,3.00
2022-09-30T08:10:15.516Z,2.50
2022-09-30T08:12:43.305Z,2.77
2022-09-30T08:15:11.530Z,2.40
2022-09-30T08:17:39.356Z,2.10
2022-09-30T08:20:12.988Z,2.67
2022-09-30T08:22:42.868Z,3.03
2022-09-30T08:25:10.957Z,2.87
2022-09-30T08:27:38.709Z,2.40
2022-09-30T08:30:07.664Z,2.10
2022-09-30T08:32:35.456Z,2.23
2022-09-30T08:35:03.202Z,2.80
2022-09-30T08:37:31.009Z,3.30
2022-09-30T08:40:00.160Z,3.33
2022-09-30T08:42:51.697Z,3.07
2022-09-30T08:45:28.021Z,4.17
2022-09-30T08:48:07.900Z,2.73
2022-09-30T08:50:43.761Z,2.50
2022-09-30T08:53:15.782Z,3.73
2022-09-30T08:55:46.472Z,3.17
2022-09-30T08:58:23.795Z,3.00
2022-09-30T09:00:55.940Z,2.30
2022-09-30T09:03:28.853Z,2.60
2022-09-30T09:06:12.021Z,1.90
2022-09-30T09:08:56.617Z,1.63
2022-09-30T09:11:42.784Z,2.10
2022-09-30T09:14:25.938Z,2.00
2022-09-30T09:17:06.589Z,2.13
2022-09-30T09:19:39.440Z,1.80
2022-09-30T09:22:11.463Z,2.13
2022-09-30T09:24:45.113Z,3.60
2022-09-30T09:27:21.909Z,1.93
2022-09-30T09:29:56.905Z,4.47
2022-09-30T09:32:27.481Z,2.30
2022-09-30T09:34:59.681Z,2.60
2022-09-30T09:37:49.159Z,2.60
2022-09-30T09:40:27.251Z,2.43
2022-09-30T09:43:14.513Z,2.50
2022-09-30T09:45:52.228Z,2.83
2022-09-30T09:48:20.000Z,3.00
2022-09-30T09:50:58.663Z,3.57
2022-09-30T09:53:46.297Z,2.63
2022-09-30T09:56:20.042Z,2.60
2022-09-30T09:59:11.090Z,2.20
2022-09-30T10:01:42.171Z,2.60
2022-09-30T10:04:21.955Z,3.17
2022-09-30T10:06:53.021Z,2.23
2022-09-30T10:09:29.548Z,2.50
2022-09-30T10:12:28.546Z,3.63
2022-09-30T10:15:01.969Z,3.10
2022-09-30T10:17:31.480Z,3.90
2022-09-30T10:20:04.832Z,3.50
2022-09-30T10:22:33.864Z,3.03
2022-09-30T10:25:17.438Z,2.53
2022-09-30T10:27:51.326Z,2.23
2022-09-30T10:30:43.969Z,3.33
2022-09-30T10:33:22.969Z,2.27
2022-09-30T10:35:55.380Z,4.03
2022-09-30T10:38:25.567Z,2.43
2022-09-30T10:40:53.533Z,3.00
2022-09-30T10:43:26.288Z,1.67
2022-09-30T10:46:20.756Z,2.33
2022-09-30T10:48:50.542Z,1.80
2022-09-30T10:51:27.333Z,2.27
2022-09-30T10:53:57.000Z,1.47
2022-09-30T10:56:37.740Z,2.20
2022-09-30T10:59:07.962Z,1.70
2022-09-30T11:01:42.233Z,2.77
2022-09-30T11:04:19.836Z,2.10
2022-09-30T11:06:50.273Z,1.97
2022-09-30T11:09:34.339Z,1.60
2022-09-30T11:12:11.148Z,2.23
2022-09-30T11:14:45.233Z,1.60
2022-09-30T11:17:28.530Z,2.27
2022-09-30T11:20:08.795Z,3.83
2022-09-30T11:22:44.576Z,3.13
2022-09-30T11:25:15.861Z,1.93
2022-09-30T11:28:06.824Z,5.03
2022-09-30T11:30:41.832Z,3.87
2022-09-30T11:33:31.797Z,2.50
2022-09-30T11:36:09.289Z,1.60
2022-09-30T11:39:04.125Z,2.37
2022-09-30T11:41:35.876Z,1.83
2022-09-30T11:44:16.981Z,2.27
2022-09-30T11:47:14.794Z,2.53
2022-09-30T11:49:57.906Z,1.50
2022-09-30T11:52:32.930Z,1.80
2022-09-30T11:55:23.485Z,1.50
2022-09-30T11:57:56.630Z,1.60
2022-09-30T12:00:24.533Z,1.80
2022-09-30T12:02:54.151Z,2.60
2022-09-30T12:05:26.845Z,1.90
2022-09-30T12:07:59.961Z,2.33
2022-09-30T12:10:30.353Z,1.67
2022-09-30T12:13:07.274Z,2.33
2022-09-30T12:15:36.570Z,2.03
2022-09-30T12:18:10.698Z,2.40
2022-09-30T12:20:45.090Z,2.93
2022-09-30T12:23:19.988Z,1.83
2022-09-30T12:25:53.490Z,1.97
2022-09-30T12:28:48.432Z,1.67
2022-09-30T12:31:36.961Z,2.47
2022-09-30T12:34:18.884Z,1.97
2022-09-30T12:37:01.389Z,2.00
2022-09-30T12:39:50.852Z,1.50
2022-09-30T12:42:51.996Z,1.10
2022-09-30T12:45:38.948Z,1.63
2022-09-30T12:48:15.069Z,1.40
2022-09-30T12:50:50.121Z,1.30
2022-09-30T12:53:22.294Z,2.43
2022-09-30T12:55:51.130Z,2.20
2022-09-30T12:58:30.474Z,1.63
2022-09-30T13:01:05.540Z,2.30
2022-09-30T13:03:53.036Z,1.97
2022-09-30T13:06:22.748Z,1.80
2022-09-30T13:09:20.191Z,2.00
2022-09-30T13:11:49.039Z,1.80
2022-09-30T13:14:33.568Z,1.87
2022-09-30T13:17:20.341Z,3.87
2022-09-30T13:19:49.450Z,2.47
2022-09-30T13:22:53.842Z,16.67
2022-09-30T13:25:23.009Z,41.07
2022-09-30T13:27:53.725Z,43.17
2022-09-30T13:30:37.182Z,23.73
2022-09-30T13:33:30.630Z,10.47
2022-09-30T13:36:09.399Z,4.67
2022-09-30T13:38:40.985Z,4.53
2022-09-30T13:41:21.411Z,3.73
2022-09-30T13:44:02.365Z,2.83
2022-09-30T13:46:36.054Z,3.30
2022-09-30T13:49:13.048Z,2.37
2022-09-30T13:51:42.648Z,2.20
2022-09-30T13:54:17.154Z,2.70
2022-09-30T13:56:46.652Z,2.60
2022-09-30T13:59:43.770Z,2.17
2022-09-30T14:02:37.241Z,3.40
2022-09-30T14:05:30.821Z,2.00
2022-09-30T14:08:21.261Z,2.93
2022-09-30T14:11:12.580Z,2.37
2022-09-30T14:13:52.669Z,2.50
2022-09-30T14:16:47.283Z,2.93
2022-09-30T14:19:31.522Z,2.97
2022-09-30T14:22:03.872Z,2.60
2022-09-30T14:24:37.527Z,2.77
2022-09-30T14:27:37.346Z,2.47
2022-09-30T14:30:15.257Z,2.80
2022-09-30T14:32:47.350Z,2.50
2022-09-30T14:35:18.851Z,2.93
2022-09-30T14:37:51.353Z,3.57
2022-09-30T14:40:22.603Z,4.47
2022-09-30T14:42:50.647Z,3.07
2022-09-30T14:45:26.705Z,2.67
2022-09-30T14:47:59.023Z,3.40
2022-09-30T14:50:31.157Z,2.10
2022-09-30T14:53:00.465Z,2.53
2022-09-30T14:55:34.134Z,2.33
2022-09-30T14:58:22.909Z,1.73
2022-09-30T15:01:00.389Z,2.37
2022-09-30T15:03:29.164Z,3.00
2022-09-30T15:05:57.914Z,1.93
2022-09-30T15:08:26.097Z,2.50
2022-09-30T15:10:56.473Z,3.20
2022-09-30T15:13:27.561Z,2.27
2022-09-30T15:15:57.161Z,1.80
2022-09-30T15:18:31.450Z,2.17
2022-09-30T15:21:08.583Z,2.10
2022-09-30T15:23:38.517Z,1.73
2022-09-30T15:26:07.393Z,1.50
2022-09-30T15:28:36.725Z,2.93
2022-09-30T15:31:07.752Z,1.63
2022-09-30T15:33:36.350Z,1.40
2022-09-30T15:36:07.292Z,1.40
2022-09-30T15:38:37.685Z,1.63
2022-09-30T15:41:07.750Z,1.20
2022-09-30T15:43:39.642Z,1.70
2022-09-30T15:46:27.952Z,3.17
2022-09-30T15:48:58.618Z,1.47
2022-09-30T15:51:30.861Z,1.80
2022-09-30T15:54:01.258Z,1.87
2022-09-30T15:56:37.068Z,1.43
2022-09-30T15:59:06.698Z,1.43
2022-09-30T16:01:38.944Z,1.47
2022-09-30T16:04:14.201Z,2.20
2022-09-30T16:06:49.193Z,2.70
2022-09-30T16:09:24.628Z,2.87
2022-09-30T16:12:05.196Z,1.63
2022-09-30T16:14:37.252Z,2.57
2022-09-30T16:17:07.525Z,2.30
2022-09-30T16:19:35.684Z,2.33
2022-09-30T16:22:03.700Z,2.13
2022-09-30T16:24:46.348Z,3.00
2022-09-30T16:27:33.936Z,3.93
2022-09-30T16:30:02.328Z,3.73
2022-09-30T16:32:38.193Z,5.40
2022-09-30T16:35:07.387Z,5.37
2022-09-30T16:37:36.095Z,4.93
2022-09-30T16:40:17.080Z,5.80
2022-09-30T16:42:44.949Z,5.33
2022-09-30T16:45:14.856Z,5.00
2022-09-30T16:47:44.412Z,4.90
2022-09-30T16:50:35.017Z,6.70
2022-09-30T16:53:02.954Z,6.97
2022-09-30T16:55:31.341Z,4.60
2022-09-30T16:58:00.095Z,4.33
2022-09-30T17:00:29.218Z,3.33
2022-09-30T17:02:58.828Z,4.60
2022-09-30T17:05:28.056Z,2.60
2022-09-30T17:07:57.585Z,3.00
2022-09-30T17:10:28.832Z,2.60
2022-09-30T17:12:57.508Z,5.60
2022-09-30T17:15:25.410Z,4.10
2022-09-30T17:17:53.706Z,2.77
2022-09-30T17:20:23.590Z,2.10
2022-09-30T17:22:51.722Z,2.40
2022-09-30T17:25:20.182Z,2.27
2022-09-30T17:27:50.002Z,2.40
2022-09-30T17:30:18.934Z,2.20
2022-09-30T17:32:47.278Z,5.27
2022-09-30T17:35:15.385Z,4.57
2022-09-30T17:37:46.431Z,4.23
2022-09-30T17:40:32.774Z,4.30
2022-09-30T17:43:10.898Z,3.50
2022-09-30T17:45:40.698Z,5.80
2022-09-30T17:48:09.334Z,7.07
2022-09-30T17:50:38.562Z,7.30
2022-09-30T17:53:07.819Z,5.60
2022-09-30T17:55:35.881Z,5.87
2022-09-30T17:58:03.943Z,5.33
2022-09-30T18:00:32.304Z,6.00
2022-09-30T18:03:00.486Z,5.50
2022-09-30T18:05:28.345Z,3.57
2022-09-30T18:07:57.098Z,4.90
2022-09-30T18:10:26.510Z,4.57
2022-09-30T18:12:55.103Z,4.30
2022-09-30T18:15:23.372Z,3.57
2022-09-30T18:17:51.404Z,4.37
2022-09-30T18:20:21.925Z,5.93
2022-09-30T18:22:52.676Z,4.57
2022-09-30T18:25:20.635Z,4.97
2022-09-30T18:27:51.394Z,8.50
2022-09-30T18:30:21.571Z,5.13
2022-09-30T18:32:50.471Z,7.57
2022-09-30T18:35:20.336Z,7.47
2022-09-30T18:37:49.633Z,5.13
2022-09-30T18:40:18.197Z,6.87
2022-09-30T18:42:46.308Z,5.20
2022-09-30T18:45:15.609Z,6.20
2022-09-30T18:47:44.886Z,5.87
2022-09-30T18:50:14.832Z,6.00
2022-09-30T18:52:42.743Z,6.13
2022-09-30T18:55:11.076Z,6.43
2022-09-30T18:57:39.350Z,4.83
2022-09-30T19:00:10.257Z,5.73
2022-09-30T19:02:40.903Z,8.13
2022-09-30T19:05:09.725Z,7.47
2022-09-30T19:07:38.623Z,7.33
2022-09-30T19:10:07.862Z,5.63
2022-09-30T19:12:36.755Z,6.07
2022-09-30T19:15:05.199Z,8.90
2022-09-30T19:17:33.365Z,7.87
2022-09-30T19:20:03.814Z,7.97
2022-09-30T19:22:32.920Z,8.77
2022-09-30T19:25:01.991Z,6.43
2022-09-30T19:27:29.925Z,6.73
2022-09-30T19:29:59.456Z,7.47
2022-09-30T19:32:29.472Z,6.30
2022-09-30T19:35:05.426Z,7.20
2022-09-30T19:37:35.900Z,6.90
2022-09-30T19:40:15.881Z,5.77
2022-09-30T19:42:48.972Z,8.83
2022-09-30T19:45:19.359Z,8.07
2022-09-30T19:47:49.148Z,7.70
2022-09-30T19:50:17.187Z,8.70
2022-09-30T19:52:56.278Z,7.47
2022-09-30T19:55:25.888Z,6.90
2022-09-30T19:57:53.942Z,6.37
2022-09-30T20:00:21.987Z,6.83
2022-09-30T20:02:50.552Z,5.70
2022-09-30T20:05:18.956Z,5.90
2022-09-30T20:07:50.887Z,7.17
2022-09-30T20:10:19.365Z,6.90
2022-09-30T20:12:47.273Z,7.47
2022-09-30T20:15:33.130Z,7.13
2022-09-30T20:18:00.974Z,8.53
2022-09-30T20:20:42.105Z,5.60
2022-09-30T20:23:11.352Z,6.70
2022-09-30T20:25:39.242Z,6.33
2022-09-30T20:28:07.582Z,8.17
2022-09-30T20:30:40.458Z,7.97
2022-09-30T20:33:08.343Z,7.93
2022-09-30T20:35:36.937Z,7.43
2022-09-30T20:38:05.182Z,8.20
2022-09-30T20:40:35.494Z,7.50
2022-09-30T20:43:04.045Z,8.03
2022-09-30T20:45:31.936Z,7.23
2022-09-30T20:47:59.840Z,7.03
2022-09-30T20:50:36.663Z,6.83
2022-09-30T20:53:07.957Z,6.13
2022-09-30T20:55:39.322Z,7.90
2022-09-30T20:58:08.529Z,6.07
2022-09-30T21:00:38.292Z,6.53
2022-09-30T21:03:06.878Z,5.90
2022-09-30T21:05:34.828Z,6.53
2022-09-30T21:08:03.239Z,8.77
2022-09-30T21:10:31.785Z,6.17
2022-09-30T21:13:01.315Z,6.97
2022-09-30T21:15:31.189Z,6.87
2022-09-30T21:17:59.286Z,5.57
2022-09-30T21:20:27.238Z,5.07
2022-09-30T21:22:55.116Z,6.53
2022-09-30T21:25:22.992Z,7.80
2022-09-30T21:27:51.354Z,6.07
2022-09-30T21:30:20.705Z,5.77
2022-09-30T21:32:48.743Z,6.17
2022-09-30T21:35:17.105Z,6.37
2022-09-30T21:37:45.006Z,5.33
2022-09-30T21:40:13.241Z,5.93
2022-09-30T21:42:41.082Z,7.43
2022-09-30T21:45:10.140Z,5.50
2022-09-30T21:47:39.326Z,6.57
2022-09-30T21:50:08.342Z,6.10
2022-09-30T21:52:37.994Z,5.90
2022-09-30T21:55:07.226Z,5.87
2022-09-30T21:57:35.302Z,5.47
2022-09-30T22:00:03.537Z,5.57
2022-09-30T22:02:31.481Z,6.07
2022-09-30T22:05:00.764Z,5.40
2022-09-30T22:07:28.877Z,4.90
2022-09-30T22:09:56.746Z,5.07
2022-09-30T22:12:24.659Z,5.87
2022-09-30T22:14:52.535Z,5.13
2022-09-30T22:17:20.465Z,4.90
2022-09-30T22:19:48.699Z,5.17
2022-09-30T22:22:17.918Z,6.83
2022-09-30T22:24:47.032Z,6.93
2022-09-30T22:27:14.866Z,7.90
2022-09-30T22:29:42.750Z,7.40
2022-09-30T22:32:10.719Z,6.00
2022-09-30T22:34:57.166Z,7.20
2022-09-30T22:37:43.855Z,6.60
2022-09-30T22:40:12.099Z,5.97
2022-09-30T22:42:39.944Z,5.63
2022-09-30T22:45:08.814Z,5.73
2022-09-30T22:47:36.912Z,6.03
2022-09-30T22:50:05.018Z,5.57
2022-09-30T22:52:34.259Z,5.97
2022-09-30T22:55:02.089Z,4.80
2022-09-30T22:57:30.890Z,5.57
2022-09-30T22:59:59.713Z,6.13
2022-09-30T23:02:27.653Z,5.03
2022-09-30T23:04:55.522Z,5.50
2022-09-30T23:07:23.481Z,5.00
2022-09-30T23:09:52.665Z,5.80
2022-09-30T23:12:21.381Z,4.83
2022-09-30T23:14:49.288Z,5.83
2022-09-30T23:17:17.575Z,6.47
2022-09-30T23:19:45.467Z,6.03
2022-09-30T23:22:13.365Z,5.70
2022-09-30T23:24:41.402Z,5.23
2022-09-30T23:27:10.638Z,4.60
2022-09-30T23:29:38.478Z,5.27
2022-09-30T23:32:06.476Z,5.27
2022-09-30T23:34:34.492Z,5.13
2022-09-30T23:37:02.419Z,6.03
2022-09-30T23:39:30.802Z,5.10
2022-09-30T23:41:58.670Z,6.10
2022-09-30T23:44:28.459Z,4.57
2022-09-30T23:47:13.706Z,5.20
2022-09-30T23:49:41.971Z,6.70
2022-09-30T23:52:13.179Z,5.43
2022-09-30T23:54:41.883Z,5.40
2022-09-30T23:57:10.525Z,6.30
2022-09-30T23:59:40.057Z,5.43
